Hangzhou Xiaoshan International Airport
ZSHC : rendu visible

Aérodrome :











RETROUVEZ-NOUS SUR...

 
LOGIN :

S'inscrire | Disclaimer

   EN    FR    IT 

 









Légende :    VFR   VFR Marginal   IFR   IFR Intensif   IFR Très Intensif
Visi : 
Plafond : 
>= 8 km
>= 3000ft
5 à 8 km
1000 à 3000 ft
1500m à 5 km
500 à 1000 ft
800 à 1500m
200 à 500 ft
< 800m
< 200 ft
Symboles :   Orages  Brouillard  Fortes neiges  Fortes précipitations  Vent > 20 kt






- Altitude de l'aérodrome : 23 ft
- Code IATA : HGH


ZSHC - Hangzhou Xiaoshan International

DERNIER METAR :
  • 272100Z 32003MPS 9999 BKN020 04/02 Q1023 NOSIG

METARs EXPIRÉS :
  • 272030Z 32004MPS 290V350 9999 BKN020 04/01 Q1023 NOSIG
  • 272000Z 32003MPS 9999 BKN020 04/01 Q1023 NOSIG
  • 271930Z 32004MPS 290V350 9999 BKN020 05/01 Q1023 NOSIG
  • 271900Z 33004MPS 290V010 9999 BKN020 05/02 Q1023 NOSIG
  • 271830Z 32003MPS 290V350 9999 BKN020 05/01 Q1023 NOSIG

TAF TAF ZSHC
Valide du 27 à 18h jusqu'au 28 à 18h UTC


271504Z 2718/2818 34003MPS 6000 BKN020 TX07/2806Z TN03/2721Z



MET'MAP, la Météo Aéronautique d'un coup d'oeil ! - Copyright ORBIFLY Décembre 2007 - Disclaimer

ORBIFLY MET'MAP TEAM :

Programmation & Développement : Alexandra Zaïnal
Sur une idée originale de : Baudouin d'Aumeries
Assistance à la programmation : Marc-Olivier Méhu
Soutien technique & logistique : Manuel Goepfert

Contact : metmap@orbifly.com




SOURCES & CREDITS :

   NOAA       Earth
Advisory